Time;durP1;ratioP1;P1;durP2;ratioP2;P2;SDS_P1;SDS_P2;PMS_P1;PMS_P2;Temp;Humidity;BMP_temperature;BMP_pressure;BME280_temperature;BME280_humidity;BME280_pressure;Samples;Min_cycle;Max_cycle;Signal;HPM_P1;HPM_P2
2021/07/29 00:01:57;;;;;;;4.40;4.00;;;;;;;20.77;72.27;99120.14;1775787;78;21084;-59
2021/07/29 00:04:23;;;;;;;4.55;4.25;;;;;;;20.74;72.31;99120.98;1770337;78;21085;-61
2021/07/29 00:06:50;;;;;;;6.10;4.15;;;;;;;20.71;72.30;99124.01;1767945;78;21057;-59
2021/07/29 00:09:16;;;;;;;4.25;3.77;;;;;;;20.68;72.43;99118.83;1801694;77;22364;-56
2021/07/29 00:11:43;;;;;;;3.95;3.27;;;;;;;20.66;72.52;99115.42;1805129;77;21129;-60
2021/07/29 00:14:09;;;;;;;5.58;4.03;;;;;;;20.66;72.70;99115.42;1796890;78;21072;-57
2021/07/29 00:16:44;;;;;;;4.20;3.90;;;;;;;20.66;72.66;99114.05;1784367;78;21093;-61
2021/07/29 00:19:05;;;;;;;4.58;4.17;;;;;;;20.67;72.65;99117.14;1780545;78;21131;-58
2021/07/29 00:21:32;;;;;;;3.90;3.70;;;;;;;20.68;72.75;99114.23;1802483;77;21085;-61
2021/07/29 00:23:59;;;;;;;4.62;4.22;;;;;;;20.67;72.85;99113.04;1781096;78;21144;-59
2021/07/29 00:26:27;;;;;;;4.97;4.67;;;;;;;20.67;72.79;99119.88;1765261;78;21617;-59
2021/07/29 00:28:53;;;;;;;4.28;4.08;;;;;;;20.65;72.75;99119.16;1774172;78;20977;-58
2021/07/29 00:31:20;;;;;;;7.12;4.05;;;;;;;20.64;72.65;99129.74;1803490;77;20901;-58
2021/07/29 00:33:46;;;;;;;4.85;3.62;;;;;;;20.62;72.64;99127.66;1786994;78;20979;-57
2021/07/29 00:36:22;;;;;;;4.65;4.17;;;;;;;20.58;72.66;99133.95;1805023;78;21040;-57
2021/07/29 00:38:48;;;;;;;4.97;4.67;;;;;;;20.55;72.77;99125.18;1803276;77;21113;-57
2021/07/29 00:41:14;;;;;;;5.60;5.20;;;;;;;20.52;72.71;99129.07;1782206;78;21143;-58
2021/07/29 00:43:41;;;;;;;5.65;5.25;;;;;;;20.50;72.80;99132.45;1769415;78;20974;-61
2021/07/29 00:46:09;;;;;;;5.33;4.90;;;;;;;20.49;72.86;99131.27;1769148;78;21363;-61
2021/07/29 00:48:37;;;;;;;6.10;5.60;;;;;;;20.46;72.96;99126.09;1763555;78;21863;-57
2021/07/29 00:51:03;;;;;;;5.78;5.28;;;;;;;20.40;72.98;99119.37;1740172;79;21144;-58
2021/07/29 00:53:30;;;;;;;4.60;4.20;;;;;;;20.39;73.04;99129.94;1766657;78;20887;-58
2021/07/29 00:55:56;;;;;;;4.47;4.17;;;;;;;20.36;73.12;99125.63;1770188;78;20978;-57
2021/07/29 00:58:22;;;;;;;8.23;5.35;;;;;;;20.34;73.19;99130.38;1795624;77;21042;-61
2021/07/29 01:00:49;;;;;;;3.90;3.70;;;;;;;20.33;73.25;99122.33;1798000;77;21062;-60
2021/07/29 01:03:15;;;;;;;4.30;4.00;;;;;;;20.33;73.36;99120.95;1792049;77;22444;-59
2021/07/29 01:05:41;;;;;;;4.55;4.25;;;;;;;20.31;73.41;99122.47;1798549;77;20907;-61
2021/07/29 01:08:08;;;;;;;6.95;4.62;;;;;;;20.31;73.30;99124.34;1790224;78;21045;-57
2021/07/29 01:10:35;;;;;;;4.45;4.15;;;;;;;20.30;73.27;99125.34;1766139;79;21081;-58
2021/07/29 01:13:01;;;;;;;6.25;4.78;;;;;;;20.27;73.36;99123.77;1772558;78;21141;-57
2021/07/29 01:15:28;;;;;;;5.70;5.20;;;;;;;20.25;73.43;99126.28;1791892;77;21139;-61
2021/07/29 01:18:01;;;;;;;4.83;4.05;;;;;;;20.22;73.50;99126.10;1792480;77;21061;-61
2021/07/29 01:20:30;;;;;;;5.17;4.62;;;;;;;20.21;73.54;99127.61;1799553;77;21002;-59
2021/07/29 01:22:56;;;;;;;5.42;3.58;;;;;;;20.20;73.67;99131.35;1795646;77;21068;-59
2021/07/29 01:25:22;;;;;;;7.75;4.75;;;;;;;20.17;73.80;99127.03;1793455;77;21088;-56
2021/07/29 01:27:49;;;;;;;7.97;4.35;;;;;;;20.16;73.92;99136.78;1776957;78;22884;-60
2021/07/29 01:30:15;;;;;;;4.37;3.85;;;;;;;20.15;74.09;99140.52;1794021;78;21076;-56
2021/07/29 01:32:42;;;;;;;4.20;3.85;;;;;;;20.15;74.29;99137.78;1744375;76;67873;-63
2021/07/29 01:35:09;;;;;;;4.87;4.28;;;;;;;20.14;74.42;99142.38;1719799;81;21044;-67
2021/07/29 01:37:39;;;;;;;4.72;4.33;;;;;;;20.16;74.54;99143.61;1722121;81;21084;-63
2021/07/29 01:40:07;;;;;;;5.67;5.28;;;;;;;20.17;74.70;99142.56;1723144;81;21124;-63
2021/07/29 01:42:34;;;;;;;6.83;6.08;;;;;;;20.18;74.88;99142.42;1721345;81;21292;-68
2021/07/29 01:45:00;;;;;;;6.53;6.00;;;;;;;20.24;75.07;99147.82;1720416;81;21029;-66
2021/07/29 01:47:27;;;;;;;6.37;5.70;;;;;;;20.29;75.31;99142.25;1717839;81;21099;-65
2021/07/29 01:49:54;;;;;;;5.95;5.42;;;;;;;20.34;75.41;99145.41;1723140;81;21076;-62
2021/07/29 01:52:20;;;;;;;5.47;5.08;;;;;;;20.38;75.54;99144.62;1723763;81;21127;-65
2021/07/29 01:54:47;;;;;;;6.35;5.83;;;;;;;20.44;75.68;99147.24;1721843;81;21064;-65
2021/07/29 01:57:14;;;;;;;6.35;5.65;;;;;;;20.48;75.72;99135.88;1722259;81;21148;-66
2021/07/29 01:59:40;;;;;;;5.17;4.97;;;;;;;20.53;75.69;99136.77;1722357;81;21072;-66
2021/07/29 02:02:06;;;;;;;4.83;3.95;;;;;;;20.58;75.70;99133.09;1723907;81;21396;-66
2021/07/29 02:04:34;;;;;;;5.03;4.40;;;;;;;20.63;75.64;99126.65;1725178;81;21743;-65
2021/07/29 02:07:00;;;;;;;4.47;4.08;;;;;;;20.67;75.64;99125.34;1721938;81;21034;-65
2021/07/29 02:09:27;;;;;;;6.47;5.58;;;;;;;20.71;75.49;99130.84;1723654;81;21053;-64
2021/07/29 02:11:55;;;;;;;7.00;5.85;;;;;;;20.73;75.40;99117.37;1721324;81;21391;-65
2021/07/29 02:14:22;;;;;;;6.17;5.70;;;;;;;20.75;75.32;99112.62;1721661;81;21481;-64
2021/07/29 02:16:49;;;;;;;5.25;4.83;;;;;;;20.78;75.31;99108.70;1726505;81;21355;-66
2021/07/29 02:19:17;;;;;;;6.05;5.62;;;;;;;20.81;75.21;99115.23;1720441;81;21040;-64
2021/07/29 02:21:44;;;;;;;6.80;4.92;;;;;;;20.83;75.16;99110.48;1719325;81;21064;-65
2021/07/29 02:24:12;;;;;;;5.75;5.22;;;;;;;20.88;75.15;99115.48;1724069;81;21095;-66
2021/07/29 02:26:38;;;;;;;5.90;5.55;;;;;;;20.91;75.23;99116.05;1722761;81;21115;-65
2021/07/29 02:29:04;;;;;;;7.22;5.58;;;;;;;20.94;75.20;99113.48;1774503;78;21111;-64
2021/07/29 02:31:30;;;;;;;5.50;5.20;;;;;;;20.95;75.25;99106.49;1773946;78;21067;-66
2021/07/29 02:33:57;;;;;;;5.58;5.08;;;;;;;20.99;75.23;99110.66;1771013;78;21131;-65
2021/07/29 02:36:23;;;;;;;7.53;7.03;;;;;;;21.02;75.25;99105.36;1772119;78;21116;-65
2021/07/29 02:38:49;;;;;;;7.35;6.78;;;;;;;21.06;75.24;99094.47;1772585;78;21079;-66
2021/07/29 02:41:15;;;;;;;7.45;6.72;;;;;;;21.09;75.18;99090.06;1771849;78;22694;-66
2021/07/29 02:43:42;;;;;;;7.12;6.53;;;;;;;21.09;75.13;99092.30;1775656;78;20957;-64
2021/07/29 02:46:08;;;;;;;6.62;6.00;;;;;;;21.11;75.18;99088.00;1772032;78;21062;-65
2021/07/29 02:48:35;;;;;;;6.70;6.12;;;;;;;21.12;75.17;99090.59;1771509;78;21052;-65
2021/07/29 02:51:01;;;;;;;6.75;6.10;;;;;;;21.14;75.14;99089.07;1771146;78;21155;-64
2021/07/29 02:53:32;;;;;;;7.15;6.70;;;;;;;21.13;75.21;99085.47;1769290;78;22477;-66
2021/07/29 02:55:57;;;;;;;7.10;6.55;;;;;;;21.14;75.21;99076.76;1770155;78;21040;-66
2021/07/29 02:58:24;;;;;;;6.87;6.42;;;;;;;21.15;75.17;99078.48;1772713;78;21063;-66
2021/07/29 03:00:52;;;;;;;6.22;5.62;;;;;;;21.15;75.21;99072.50;1780795;78;21032;-66
2021/07/29 03:03:18;;;;;;;8.10;6.67;;;;;;;21.18;75.27;99072.70;1776700;78;20929;-65
2021/07/29 03:05:44;;;;;;;6.53;6.03;;;;;;;21.22;75.33;99070.02;1774692;78;21109;-66
2021/07/29 03:08:10;;;;;;;6.62;6.12;;;;;;;21.26;75.37;99070.58;1775852;78;20927;-65
2021/07/29 03:10:37;;;;;;;6.80;6.40;;;;;;;21.28;75.36;99064.41;1777647;78;20936;-64
2021/07/29 03:13:05;;;;;;;7.72;7.17;;;;;;;21.32;75.33;99068.06;1776676;78;21255;-66
2021/07/29 03:15:31;;;;;;;8.88;8.08;;;;;;;21.35;75.31;99060.05;1774753;78;21452;-65
2021/07/29 03:17:58;;;;;;;9.00;8.35;;;;;;;21.37;75.32;99057.48;1776411;78;21094;-66
2021/07/29 03:20:24;;;;;;;11.85;8.73;;;;;;;21.40;75.28;99068.12;1777926;78;20969;-64
2021/07/29 03:22:51;;;;;;;8.30;7.75;;;;;;;21.41;75.32;99060.77;1779467;78;20969;-65
2021/07/29 03:25:17;;;;;;;8.93;7.30;;;;;;;21.44;75.40;99059.06;1780915;78;20956;-64
2021/07/29 03:27:43;;;;;;;7.75;7.05;;;;;;;21.44;75.43;99059.92;1780011;78;20988;-66
2021/07/29 03:30:11;;;;;;;7.15;6.65;;;;;;;21.46;75.50;99057.03;1776199;78;20913;-64
2021/07/29 03:32:37;;;;;;;6.70;6.20;;;;;;;21.49;75.51;99055.36;1775514;78;20960;-65
2021/07/29 03:35:05;;;;;;;9.35;8.63;;;;;;;21.52;75.55;99056.42;1780090;78;20881;-65
2021/07/29 03:37:31;;;;;;;7.17;6.25;;;;;;;21.58;75.64;99048.06;1777409;78;21448;-66
2021/07/29 03:40:04;;;;;;;7.35;6.87;;;;;;;21.64;75.70;99048.27;1777657;78;21047;-64
2021/07/29 03:42:27;;;;;;;7.90;7.28;;;;;;;21.69;75.71;99050.54;1749062;79;21259;-64
2021/07/29 03:44:53;;;;;;;6.97;6.47;;;;;;;21.73;75.69;99048.67;1751816;79;21309;-66
2021/07/29 03:47:20;;;;;;;7.58;6.78;;;;;;;21.80;75.58;99048.87;1772507;78;21298;-66
2021/07/29 03:49:46;;;;;;;7.22;6.72;;;;;;;21.84;75.52;99044.30;1757494;79;21557;-64
2021/07/29 03:52:13;;;;;;;6.87;6.47;;;;;;;21.90;75.75;99048.26;1752257;79;21132;-66
2021/07/29 03:54:39;;;;;;;7.72;6.70;;;;;;;21.94;75.87;99048.30;1750676;79;21115;-66
2021/07/29 03:57:08;;;;;;;6.62;6.22;;;;;;;22.00;75.94;99047.67;1750571;79;21629;-64
2021/07/29 03:59:37;;;;;;;7.45;6.85;;;;;;;22.06;75.94;99052.48;1707315;79;21040;-66
2021/07/29 04:02:10;;;;;;;6.83;6.33;;;;;;;22.12;75.87;99051.83;1754724;79;21432;-65
2021/07/29 04:04:40;;;;;;;6.75;6.40;;;;;;;22.21;75.93;99052.72;1762529;79;20925;-65
2021/07/29 04:07:06;;;;;;;7.37;6.87;;;;;;;22.26;75.93;99053.97;1780546;78;21163;-68
2021/07/29 04:09:33;;;;;;;7.62;7.10;;;;;;;22.31;75.86;99057.56;1779509;78;21125;-67
2021/07/29 04:12:00;;;;;;;6.55;6.10;;;;;;;22.36;75.76;99059.83;1774917;78;21051;-67
2021/07/29 04:14:27;;;;;;;8.45;6.22;;;;;;;22.41;75.61;99052.81;1777216;78;21138;-67
2021/07/29 04:16:54;;;;;;;10.82;7.08;;;;;;;22.46;75.35;99057.27;1777452;78;21032;-64
2021/07/29 04:19:21;;;;;;;7.50;6.97;;;;;;;22.53;75.19;99050.13;1780296;78;22750;-67
2021/07/29 04:21:48;;;;;;;7.08;6.28;;;;;;;22.61;74.98;99052.03;1777989;78;21089;-67
2021/07/29 04:24:16;;;;;;;6.75;6.12;;;;;;;22.70;74.72;99045.55;1782376;78;20909;-67
2021/07/29 04:26:42;;;;;;;7.85;7.03;;;;;;;22.79;74.48;99046.45;1759001;78;21028;-67
2021/07/29 04:29:08;;;;;;;9.90;9.05;;;;;;;22.91;74.08;99045.94;1778380;78;21040;-67
2021/07/29 04:31:35;;;;;;;8.68;7.87;;;;;;;23.01;73.74;99037.55;1761998;79;21599;-68
2021/07/29 04:34:02;;;;;;;10.48;7.95;;;;;;;23.13;73.45;99033.45;1757878;79;21060;-67
2021/07/29 04:36:30;;;;;;;11.33;6.67;;;;;;;23.24;73.20;99037.22;1749770;79;21123;-67
2021/07/29 04:38:57;;;;;;;6.87;6.33;;;;;;;23.38;73.22;99034.31;1776969;78;21491;-68
2021/07/29 04:41:23;;;;;;;10.40;7.58;;;;;;;23.49;73.10;99040.84;1774240;78;21522;-67
2021/07/29 04:43:50;;;;;;;12.35;9.45;;;;;;;23.61;73.35;99041.35;1774295;78;21191;-67
2021/07/29 04:46:17;;;;;;;11.03;8.58;;;;;;;23.72;73.28;99038.25;1742236;80;21072;-68
2021/07/29 04:48:43;;;;;;;9.78;8.78;;;;;;;23.85;73.19;99038.55;1772574;78;21076;-68
2021/07/29 04:51:09;;;;;;;11.22;10.13;;;;;;;23.98;72.91;99043.00;1752871;79;21019;-69
2021/07/29 04:53:36;;;;;;;9.10;8.38;;;;;;;24.10;72.79;99041.57;1760940;79;20995;-68
2021/07/29 04:56:03;;;;;;;10.23;8.23;;;;;;;24.19;72.04;99044.29;1760478;79;21567;-68
2021/07/29 04:58:29;;;;;;;8.93;8.23;;;;;;;24.27;71.84;99038.79;1760269;79;21028;-68
2021/07/29 05:00:56;;;;;;;8.03;7.20;;;;;;;24.36;71.40;99037.20;1757898;79;21383;-67
2021/07/29 05:03:25;;;;;;;6.22;5.83;;;;;;;24.46;71.12;99032.86;1757826;79;21626;-67
2021/07/29 05:05:51;;;;;;;6.12;5.62;;;;;;;24.57;70.69;99039.34;1756874;79;21147;-69
2021/07/29 05:08:18;;;;;;;7.50;6.22;;;;;;;24.69;70.19;99042.02;1778388;78;22236;-68
2021/07/29 05:10:44;;;;;;;6.37;5.87;;;;;;;24.82;69.33;99035.41;1780264;78;21683;-68
2021/07/29 05:13:11;;;;;;;7.08;6.45;;;;;;;24.97;68.50;99033.28;1783076;78;21104;-68
2021/07/29 05:15:37;;;;;;;6.42;5.62;;;;;;;25.07;67.55;99025.64;1778863;78;21123;-69
2021/07/29 05:18:04;;;;;;;7.12;6.35;;;;;;;25.19;67.24;99025.52;1747000;80;21064;-67
2021/07/29 05:20:30;;;;;;;7.97;7.47;;;;;;;25.28;66.57;99017.53;1779606;78;21672;-68
2021/07/29 05:22:57;;;;;;;9.33;7.42;;;;;;;25.34;66.22;99022.32;1744873;80;22262;-66
2021/07/29 05:25:23;;;;;;;8.48;7.12;;;;;;;25.38;66.01;99012.63;1778691;78;21249;-67
2021/07/29 05:27:50;;;;;;;8.50;7.65;;;;;;;25.43;65.98;99014.84;1742660;80;21656;-69
2021/07/29 05:30:17;;;;;;;7.25;6.85;;;;;;;25.45;66.02;99019.09;1781858;78;21707;-68
2021/07/29 05:32:44;;;;;;;8.55;7.87;;;;;;;25.51;66.14;99012.01;1754820;79;21106;-67
2021/07/29 05:35:10;;;;;;;7.53;6.83;;;;;;;25.57;65.68;99013.48;1783374;78;20936;-68
2021/07/29 05:37:38;;;;;;;6.78;6.25;;;;;;;25.63;65.36;99015.52;1778618;78;21055;-67
2021/07/29 05:40:06;;;;;;;7.30;6.35;;;;;;;25.71;64.69;99007.68;1787318;78;21087;-67
2021/07/29 05:42:35;;;;;;;8.28;6.22;;;;;;;25.78;64.34;99005.02;1780028;78;21660;-68
2021/07/29 05:45:03;;;;;;;6.08;5.78;;;;;;;25.84;63.72;99006.52;1774679;78;22209;-67
2021/07/29 05:47:37;;;;;;;8.60;5.42;;;;;;;25.89;63.16;99006.80;1775487;78;21182;-68
2021/07/29 05:50:05;;;;;;;7.10;5.92;;;;;;;25.96;63.00;98997.23;1779601;78;21188;-67
2021/07/29 05:52:31;;;;;;;6.95;6.10;;;;;;;26.03;62.28;98993.22;1781025;78;20904;-69
2021/07/29 05:57:51;;;;;;;6.10;5.55;;;;;;;26.22;62.10;98987.95;1762225;78;22683;-54
2021/07/29 06:00:18;;;;;;;5.85;5.40;;;;;;;26.25;61.92;98994.47;1743856;80;21030;-54
2021/07/29 06:02:45;;;;;;;5.97;3.80;;;;;;;26.31;60.83;98990.11;1740564;80;21378;-56
2021/07/29 06:05:11;;;;;;;3.50;3.15;;;;;;;26.37;60.64;98988.81;1739159;80;20923;-55
2021/07/29 06:07:38;;;;;;;3.00;2.72;;;;;;;26.47;59.56;98999.55;1740189;80;21069;-54
2021/07/29 06:10:06;;;;;;;4.97;3.00;;;;;;;26.55;58.95;98996.67;1736259;80;21164;-55
2021/07/29 06:12:32;;;;;;;2.65;2.47;;;;;;;26.64;58.17;98997.41;1704928;80;21532;-57
2021/07/29 06:15:00;;;;;;;3.52;3.33;;;;;;;26.73;57.95;98997.63;1743679;80;21110;-54
2021/07/29 06:17:31;;;;;;;3.92;3.15;;;;;;;26.83;57.85;98997.31;1739681;80;21165;-53
2021/07/29 06:19:57;;;;;;;2.65;2.45;;;;;;;26.91;57.88;98988.41;1743461;80;20946;-56
2021/07/29 06:22:23;;;;;;;6.20;5.80;;;;;;;27.00;58.27;98991.38;1743310;80;20990;-58
2021/07/29 06:24:49;;;;;;;3.72;3.42;;;;;;;27.08;57.20;98987.63;1745239;80;20954;-56
2021/07/29 06:27:16;;;;;;;4.60;4.30;;;;;;;27.16;57.32;98990.25;1739318;80;22361;-56
2021/07/29 06:29:42;;;;;;;5.25;4.72;;;;;;;27.23;56.98;98989.77;1737356;80;21700;-57
2021/07/29 06:32:08;;;;;;;5.22;4.70;;;;;;;27.31;57.18;98988.25;1728894;80;21038;-55
2021/07/29 06:34:36;;;;;;;5.25;4.83;;;;;;;27.39;57.46;98990.05;1723946;81;21068;-58
2021/07/29 06:37:03;;;;;;;4.53;4.20;;;;;;;27.46;57.33;98983.52;1720184;81;21396;-58
2021/07/29 06:39:30;;;;;;;3.85;3.65;;;;;;;27.55;57.78;98982.02;1722643;81;21570;-58
2021/07/29 06:41:56;;;;;;;5.67;5.35;;;;;;;27.62;57.23;98977.39;1722475;80;21051;-58
2021/07/29 06:44:22;;;;;;;5.75;5.22;;;;;;;27.68;56.97;98977.95;1716756;81;21047;-58
2021/07/29 06:46:48;;;;;;;4.53;4.05;;;;;;;27.74;56.33;98977.99;1718796;81;21065;-57
2021/07/29 06:49:15;;;;;;;4.22;3.90;;;;;;;27.80;56.17;98982.73;1721611;81;21104;-60
2021/07/29 06:51:41;;;;;;;6.72;4.05;;;;;;;27.85;56.61;98983.50;1720896;81;23133;-57
2021/07/29 06:54:08;;;;;;;4.53;4.33;;;;;;;27.89;56.12;98991.73;1718365;81;21499;-57
2021/07/29 06:56:34;;;;;;;4.75;4.42;;;;;;;27.95;56.10;98984.52;1708457;81;21085;-58
2021/07/29 06:59:00;;;;;;;5.15;3.62;;;;;;;28.01;55.97;98985.93;1683795;83;21129;-58
2021/07/29 07:01:27;;;;;;;4.65;3.08;;;;;;;28.08;55.48;98990.11;1684804;83;21142;-58
2021/07/29 07:03:54;;;;;;;3.05;2.22;;;;;;;28.15;55.62;98994.66;1682453;83;21085;-58
2021/07/29 07:06:20;;;;;;;4.10;2.47;;;;;;;28.22;55.42;98996.09;1681123;83;21065;-58
2021/07/29 07:08:47;;;;;;;2.37;2.10;;;;;;;28.29;54.42;98996.13;1680547;83;21066;-59
2021/07/29 07:11:17;;;;;;;3.25;2.95;;;;;;;28.36;53.51;98994.23;1682787;83;21156;-59
2021/07/29 07:13:46;;;;;;;2.50;2.12;;;;;;;28.42;53.75;98991.48;1684938;83;21053;-56
2021/07/29 07:16:13;;;;;;;2.65;2.45;;;;;;;28.48;52.98;98995.36;1685267;83;21155;-59
2021/07/29 07:18:41;;;;;;;3.17;2.27;;;;;;;28.53;53.20;98985.37;1685100;83;21085;-59
2021/07/29 07:21:09;;;;;;;1.85;1.75;;;;;;;28.61;53.25;98990.72;1682753;83;21072;-55
2021/07/29 07:23:35;;;;;;;4.72;2.52;;;;;;;28.68;53.22;98984.34;1681261;83;21698;-57
2021/07/29 07:26:02;;;;;;;2.35;2.15;;;;;;;28.74;52.66;98980.77;1680182;83;21544;-54
2021/07/29 07:28:28;;;;;;;2.08;1.98;;;;;;;28.80;52.79;98982.19;1682979;83;21112;-55
2021/07/29 07:30:55;;;;;;;3.20;2.05;;;;;;;28.86;52.96;98984.11;1683174;83;21093;-56
2021/07/29 07:33:21;;;;;;;3.77;2.50;;;;;;;28.91;52.80;98990.42;1683847;83;21092;-55
2021/07/29 07:35:49;;;;;;;2.60;2.33;;;;;;;28.97;52.01;98986.80;1684290;83;21065;-56
2021/07/29 07:38:16;;;;;;;5.47;2.65;;;;;;;29.02;52.63;98992.56;1682807;83;21107;-55
2021/07/29 07:40:42;;;;;;;4.55;2.55;;;;;;;29.09;52.49;98990.68;1681333;83;21506;-56
2021/07/29 07:43:09;;;;;;;6.10;3.58;;;;;;;29.13;52.33;98984.16;1682204;83;21074;-56
2021/07/29 07:45:37;;;;;;;5.80;3.22;;;;;;;29.16;51.99;98986.52;1682048;83;21117;-56
2021/07/29 07:48:05;;;;;;;4.22;3.92;;;;;;;29.21;52.37;98983.95;1683421;83;21101;-57
2021/07/29 07:50:31;;;;;;;3.02;2.67;;;;;;;29.23;53.14;98978.53;1680882;83;21102;-56
2021/07/29 07:52:57;;;;;;;15.43;12.65;;;;;;;29.24;53.04;98969.69;1682808;83;21213;-57
2021/07/29 07:55:24;;;;;;;5.15;4.12;;;;;;;29.26;53.54;98970.34;1685753;83;21567;-58
2021/07/29 07:57:50;;;;;;;4.20;4.00;;;;;;;29.33;54.52;98971.19;1693431;82;21086;-56
2021/07/29 08:00:17;;;;;;;4.78;4.37;;;;;;;29.39;54.89;98975.90;1700534;82;21077;-57
2021/07/29 08:02:43;;;;;;;4.80;4.33;;;;;;;29.46;55.18;98974.51;1701882;82;20938;-56
2021/07/29 08:06:53;;;;;;;4.47;4.17;;;;;;;29.57;54.88;98973.88;1786763;78;22726;-55
2021/07/29 08:09:19;;;;;;;5.72;5.20;;;;;;;29.56;54.52;98976.33;1765645;79;20973;-59
2021/07/29 08:11:47;;;;;;;5.10;4.03;;;;;;;29.55;54.63;98976.85;1765611;79;21450;-57
2021/07/29 08:14:13;;;;;;;4.20;4.00;;;;;;;29.56;54.51;98976.33;1769199;79;21456;-58
2021/07/29 08:16:40;;;;;;;5.33;4.85;;;;;;;29.59;55.06;98978.67;1764802;79;20986;-58
2021/07/29 08:19:07;;;;;;;6.92;5.12;;;;;;;29.64;54.87;98978.88;1772480;78;20870;-56
2021/07/29 08:21:33;;;;;;;4.70;3.60;;;;;;;29.66;54.72;98975.36;1766278;79;20998;-54
2021/07/29 08:23:59;;;;;;;6.08;3.37;;;;;;;29.71;54.82;98972.78;1766827;79;21060;-55
2021/07/29 08:26:25;;;;;;;3.37;3.02;;;;;;;29.78;52.83;98972.23;1763805;79;20915;-55
2021/07/29 08:28:52;;;;;;;4.58;3.67;;;;;;;29.84;52.64;98972.78;1769431;79;21348;-55
2021/07/29 08:31:19;;;;;;;3.58;3.27;;;;;;;29.92;52.25;98972.55;1761500;79;21570;-55
2021/07/29 08:33:46;;;;;;;9.28;3.40;;;;;;;29.95;52.05;98962.41;1741396;80;21391;-57
2021/07/29 08:36:17;;;;;;;8.48;3.40;;;;;;;29.98;51.41;98959.22;1740249;80;21454;-54
2021/07/29 08:38:44;;;;;;;11.73;3.40;;;;;;;30.03;51.39;98962.70;1740820;80;21487;-55
2021/07/29 08:41:11;;;;;;;5.55;3.65;;;;;;;30.04;50.97;98959.72;1741403;80;20962;-56
2021/07/29 08:43:37;;;;;;;8.90;3.33;;;;;;;30.08;50.78;98965.17;1742140;80;21415;-57
2021/07/29 08:46:07;;;;;;;4.35;3.95;;;;;;;30.11;51.02;98962.50;1741953;80;21052;-55
2021/07/29 08:48:35;;;;;;;4.08;2.95;;;;;;;30.13;50.67;98958.09;1738194;80;21109;-55
2021/07/29 08:51:01;;;;;;;3.47;3.17;;;;;;;30.14;50.86;98960.66;1737856;80;21068;-56
2021/07/29 08:53:28;;;;;;;3.45;3.20;;;;;;;30.17;50.19;98954.68;1742999;80;21127;-57
2021/07/29 08:55:55;;;;;;;5.15;2.90;;;;;;;30.20;50.69;98961.16;1739983;80;21045;-57
2021/07/29 08:58:22;;;;;;;11.03;2.92;;;;;;;30.23;50.10;98954.33;1743242;80;21402;-57
2021/07/29 09:01:04;;;;;;;9.75;3.60;;;;;;;30.27;49.85;98955.61;1739813;80;22099;-57
2021/07/29 09:03:31;;;;;;;6.58;2.92;;;;;;;30.35;50.30;98958.14;1742166;80;20854;-56
2021/07/29 09:06:13;;;;;;;3.87;2.52;;;;;;;30.41;49.50;98960.03;1733118;80;21006;-54
2021/07/29 09:08:54;;;;;;;5.80;3.42;;;;;;;30.45;48.91;98958.53;1723431;81;22341;-56
2021/07/29 09:11:36;;;;;;;5.53;3.70;;;;;;;30.44;49.65;98956.28;1730707;80;21018;-56
2021/07/29 09:14:18;;;;;;;4.92;3.65;;;;;;;30.47;49.56;98950.80;1728168;81;21146;-59
2021/07/29 09:17:05;;;;;;;9.45;4.15;;;;;;;30.51;49.82;98939.63;1729781;80;21053;-58
2021/07/29 09:22:23;;;;;;;6.55;3.22;;;;;;;30.65;50.22;98936.22;1869375;75;22050;-56
2021/07/29 09:25:12;;;;;;;7.97;4.28;;;;;;;30.63;49.82;98931.41;1849242;76;20969;-57
2021/07/29 09:27:48;;;;;;;9.63;3.70;;;;;;;30.66;49.51;98931.84;1845716;76;21737;-56
2021/07/29 09:30:32;;;;;;;4.05;2.17;;;;;;;30.69;49.87;98924.46;1844388;76;21108;-58
2021/07/29 09:33:06;;;;;;;4.72;3.05;;;;;;;30.74;48.93;98920.46;1825043;76;21020;-57
2021/07/29 09:35:53;;;;;;;7.03;2.72;;;;;;;30.80;48.33;98927.03;1822330;77;21066;-57
2021/07/29 09:38:25;;;;;;;2.33;1.32;;;;;;;30.86;47.38;98924.78;1817329;77;20996;-57
2021/07/29 09:40:56;;;;;;;7.12;2.30;;;;;;;30.91;46.00;98923.55;1818456;77;21526;-58
2021/07/29 09:43:24;;;;;;;3.77;2.70;;;;;;;30.94;46.66;98922.27;1822108;77;20957;-58
2021/07/29 09:45:54;;;;;;;3.95;2.83;;;;;;;30.96;46.70;98922.36;1822661;77;20981;-57
2021/07/29 09:48:24;;;;;;;4.78;2.15;;;;;;;30.97;46.06;98919.87;1817906;77;21041;-59
2021/07/29 09:50:55;;;;;;;4.55;1.85;;;;;;;30.98;46.00;98923.50;1821172;77;21104;-57
2021/07/29 09:53:24;;;;;;;2.40;1.42;;;;;;;31.00;45.43;98918.58;1820644;77;21091;-58
2021/07/29 09:55:52;;;;;;;6.08;1.40;;;;;;;31.02;44.74;98923.38;1827096;77;21363;-58
2021/07/29 09:58:18;;;;;;;3.90;1.17;;;;;;;31.04;43.98;98918.45;1820222;77;21089;-56
2021/07/29 10:00:44;;;;;;;6.10;1.30;;;;;;;31.08;43.49;98918.33;1822358;77;21341;-58
2021/07/29 10:03:11;;;;;;;5.87;1.20;;;;;;;31.08;42.79;98920.58;1821031;77;21037;-57
2021/07/29 10:05:51;;;;;;;3.98;1.32;;;;;;;31.08;42.53;98919.19;1820114;77;21501;-55
2021/07/29 10:08:25;;;;;;;3.45;1.27;;;;;;;31.10;42.87;98922.59;1821403;77;21013;-58
2021/07/29 10:10:51;;;;;;;5.45;1.20;;;;;;;31.12;42.76;98918.20;1818977;77;20970;-58
2021/07/29 10:13:18;;;;;;;5.55;1.25;;;;;;;31.14;43.38;98918.81;1818203;77;21545;-57
2021/07/29 10:15:46;;;;;;;2.52;1.32;;;;;;;31.15;42.54;98915.81;1818116;77;21163;-57
2021/07/29 10:18:14;;;;;;;5.05;1.60;;;;;;;31.19;43.26;98907.34;1821990;77;22054;-56
2021/07/29 10:20:41;;;;;;;3.58;1.25;;;;;;;31.25;43.29;98907.50;1819698;77;20874;-56
2021/07/29 10:23:19;;;;;;;6.08;1.10;;;;;;;31.27;42.88;98910.37;1821387;77;20985;-58
2021/07/29 10:26:03;;;;;;;5.15;1.30;;;;;;;31.28;43.08;98906.52;1817476;77;21110;-57
2021/07/29 10:28:40;;;;;;;3.80;1.70;;;;;;;31.30;43.47;98908.55;1822947;77;21041;-59
2021/07/29 10:31:08;;;;;;;3.52;1.32;;;;;;;31.33;43.81;98908.06;1820472;77;21587;-57
2021/07/29 10:33:34;;;;;;;7.58;1.30;;;;;;;31.38;42.86;98900.45;1817770;77;21033;-57
2021/07/29 10:36:01;;;;;;;6.10;1.20;;;;;;;31.41;42.74;98891.09;1816714;77;21255;-57
2021/07/29 10:38:47;;;;;;;5.33;1.30;;;;;;;31.44;42.53;98896.20;1815661;77;21017;-56
2021/07/29 10:41:25;;;;;;;9.85;1.57;;;;;;;31.44;42.38;98890.64;1820214;77;20892;-58
2021/07/29 10:43:53;;;;;;;7.72;1.00;;;;;;;31.45;42.14;98885.94;1821068;77;21524;-56
2021/07/29 10:46:19;;;;;;;3.85;1.10;;;;;;;31.45;42.56;98877.59;1821883;77;21193;-58
2021/07/29 10:49:12;;;;;;;4.50;2.12;;;;;;;31.48;42.92;98872.94;1818394;77;20942;-58
2021/07/29 10:51:23;;;;;;;4.50;0.93;;;;;;;31.50;43.23;98877.20;1822886;77;20966;-57
2021/07/29 10:53:54;;;;;;;5.85;1.02;;;;;;;31.52;42.56;98879.23;1818097;77;20942;-55
2021/07/29 10:56:26;;;;;;;4.28;1.60;;;;;;;31.53;42.91;98876.76;1822969;77;21108;-55
2021/07/29 10:58:54;;;;;;;10.15;1.00;;;;;;;31.56;42.08;98872.64;1817465;77;20957;-57
2021/07/29 11:01:21;;;;;;;7.03;1.22;;;;;;;31.53;42.24;98877.30;1819379;77;21836;-56
2021/07/29 11:04:00;;;;;;;3.37;0.90;;;;;;;31.53;42.19;98881.47;1822105;77;21545;-54
2021/07/29 11:07:28;;;;;;;3.58;1.10;;;;;;;31.53;41.92;98878.15;1819451;77;20891;-56
2021/07/29 11:09:18;;;;;;;4.50;0.98;;;;;;;31.53;42.13;98878.69;1788922;77;21097;-58
2021/07/29 11:11:48;;;;;;;2.75;1.00;;;;;;;31.54;41.11;98877.61;1818835;77;20923;-55
2021/07/29 11:14:27;;;;;;;2.62;0.80;;;;;;;31.53;40.85;98866.17;1822919;77;20949;-56
2021/07/29 11:16:57;;;;;;;3.33;0.85;;;;;;;31.54;40.33;98874.83;1819351;77;20886;-57
2021/07/29 11:19:24;;;;;;;4.15;1.00;;;;;;;31.55;40.76;98865.41;1822339;77;21766;-57
2021/07/29 11:22:04;;;;;;;3.10;1.02;;;;;;;31.59;40.98;98863.85;1822917;77;21771;-56
2021/07/29 11:24:31;;;;;;;1.77;0.80;;;;;;;31.63;40.83;98866.53;1824127;77;20910;-57
2021/07/29 11:26:58;;;;;;;3.15;0.90;;;;;;;31.67;40.39;98862.73;1821882;77;20926;-57
2021/07/29 11:29:24;;;;;;;2.30;0.80;;;;;;;31.67;40.38;98851.59;1790784;77;21006;-57
2021/07/29 11:31:55;;;;;;;7.65;1.65;;;;;;;31.68;40.73;98853.30;1819855;77;21062;-59
2021/07/29 11:34:34;;;;;;;3.47;0.90;;;;;;;31.67;40.63;98848.28;1820065;77;21125;-56
2021/07/29 11:37:01;;;;;;;4.40;1.20;;;;;;;31.70;40.38;98852.54;1819203;77;21606;-57
2021/07/29 11:39:42;;;;;;;3.77;0.90;;;;;;;31.70;40.34;98837.23;1819233;77;21370;-55
2021/07/29 11:42:09;;;;;;;2.83;0.80;;;;;;;31.70;40.06;98839.48;1815443;77;21727;-58
2021/07/29 11:44:44;;;;;;;4.67;1.10;;;;;;;31.72;39.72;98835.94;1815068;77;21017;-56
2021/07/29 11:47:11;;;;;;;2.25;0.93;;;;;;;31.73;40.60;98832.04;1822057;77;22292;-58